KBAB

Beale AFB Airport

Marysville, California, USA
METAR KBAB 192058Z AUTO 00000KT 10SM SCT003 17/00 A3002 RMK AO2 VIS 2 1/2 RWY15 SLP169 T01690001 57018 $
Observed Flight Rules
Nov-19 @ 20:58 UTC (an hour ago) Visual Flight Rules
Visibility Clouds
10 miles
  • Scattered at 300' AGL
Temperatures Readings
Current 17°C / 63°F
Dewpoint 0°C / 32°F
Humidity 32%
Altimeter 30.02" Hg
Pressure 1016.9 hPa
Elevation 34
METAR KBAB 192058Z AUTO 00000KT 10SM SCT003 17/00 A3002 RMK AO2 VIS 2 1/2 RWY15 SLP169 T01690001 57018 $
Observed Flight Rules
Nov-19 @ 20:58 UTC
(an hour ago)
VFR
Clouds
  • Scattered at 300' AGL
Temperature Dewpoint
17°C / 63°F 0°C / 32°F
Humidity Altimeter Pressure
32% 30.02" Hg 1016.9 hPa